Time,TemperatureF,DewpointF,PressureIn,WindDirection,WindDirectionDegrees,WindSpeedMPH,WindSpeedGustMPH,Humidity,HourlyPrecipIn,Conditions,Clouds,dailyrainin,SoftwareType,DateUTC
2013-07-17 00:09:00,71.1,68.0,30.93,East,88,0.0,-999.0,90,-99.99,,,0.00,weatherlink.com 1.10,2013-07-17 04:09:00,
2013-07-17 00:23:00,71.0,68.0,30.93,East,88,0.0,-999.0,90,-99.99,,,0.00,weatherlink.com 1.10,2013-07-17 04:23:00,
2013-07-17 00:38:00,70.7,68.0,30.93,East,88,0.0,-999.0,90,-99.99,,,0.00,weatherlink.com 1.10,2013-07-17 04:38:00,
2013-07-17 00:53:00,70.4,67.0,30.93,East,88,0.0,-999.0,90,-99.99,,,0.00,weatherlink.com 1.10,2013-07-17 04:53:00,
2013-07-17 01:10:00,70.1,67.0,30.93,East,88,0.0,-999.0,91,-99.99,,,0.00,weatherlink.com 1.10,2013-07-17 05:10:00,
2013-07-17 01:23:00,69.9,67.0,30.93,East,88,0.0,-999.0,91,-99.99,,,0.00,weatherlink.com 1.10,2013-07-17 05:23:00,
2013-07-17 01:38:00,69.7,67.0,30.93,East,87,0.0,-999.0,91,-99.99,,,0.00,weatherlink.com 1.10,2013-07-17 05:38:00,
2013-07-17 01:53:00,69.7,67.0,30.93,East,88,0.0,-999.0,92,-99.99,,,0.00,weatherlink.com 1.10,2013-07-17 05:53:00,
2013-07-17 02:10:00,69.5,67.0,30.93,East,87,0.0,-999.0,92,-99.99,,,0.00,weatherlink.com 1.10,2013-07-17 06:10:00,
2013-07-17 02:23:00,69.2,67.0,30.93,East,88,0.0,-999.0,92,-99.99,,,0.00,weatherlink.com 1.10,2013-07-17 06:23:00,
2013-07-17 02:38:00,69.2,67.0,30.93,East,88,0.0,-999.0,93,-99.99,,,0.00,weatherlink.com 1.10,2013-07-17 06:38:00,
2013-07-17 02:53:00,68.9,67.0,30.93,East,88,0.0,-999.0,92,-99.99,,,0.00,weatherlink.com 1.10,2013-07-17 06:53:00,
2013-07-17 03:10:00,68.8,67.0,30.93,East,88,0.0,-999.0,93,-99.99,,,0.00,weatherlink.com 1.10,2013-07-17 07:10:00,
2013-07-17 03:23:00,68.6,67.0,30.93,East,88,0.0,-999.0,93,-99.99,,,0.00,weatherlink.com 1.10,2013-07-17 07:23:00,
2013-07-17 03:38:00,68.6,67.0,30.93,East,87,0.0,-999.0,93,-99.99,,,0.00,weatherlink.com 1.10,2013-07-17 07:38:00,
2013-07-17 03:53:00,68.4,66.0,30.93,East,87,0.0,-999.0,93,-99.99,,,0.00,weatherlink.com 1.10,2013-07-17 07:53:00,
2013-07-17 04:10:00,68.3,66.0,30.93,East,88,0.0,-999.0,93,-99.99,,,0.00,weatherlink.com 1.10,2013-07-17 08:10:00,
2013-07-17 04:23:00,68.1,66.0,30.93,East,87,0.0,-999.0,93,-99.99,,,0.00,weatherlink.com 1.10,2013-07-17 08:23:00,
2013-07-17 04:38:00,68.0,66.0,30.93,East,88,0.0,-999.0,93,-99.99,,,0.00,weatherlink.com 1.10,2013-07-17 08:38:00,
2013-07-17 04:53:00,67.9,66.0,30.93,East,88,0.0,-999.0,93,-99.99,,,0.00,weatherlink.com 1.10,2013-07-17 08:53:00,
2013-07-17 05:10:00,67.8,66.0,30.93,East,88,0.0,-999.0,93,-99.99,,,0.00,weatherlink.com 1.10,2013-07-17 09:10:00,
2013-07-17 05:23:00,67.9,66.0,30.93,East,88,0.0,-999.0,94,-99.99,,,0.00,weatherlink.com 1.10,2013-07-17 09:23:00,
2013-07-17 05:38:00,68.0,67.0,30.93,East,88,0.0,-999.0,95,-99.99,,,0.00,weatherlink.com 1.10,2013-07-17 09:38:00,
2013-07-17 05:53:00,68.1,66.0,30.93,East,88,0.0,-999.0,94,-99.99,,,0.00,weatherlink.com 1.10,2013-07-17 09:53:00,
2013-07-17 06:10:00,68.0,66.0,30.93,East,87,0.0,-999.0,94,-99.99,,,0.00,weatherlink.com 1.10,2013-07-17 10:10:00,
2013-07-17 06:23:00,68.1,66.0,30.93,East,88,0.0,-999.0,94,-99.99,,,0.00,weatherlink.com 1.10,2013-07-17 10:23:00,
2013-07-17 06:38:00,68.7,67.0,30.93,East,87,0.0,-999.0,94,-99.99,,,0.00,weatherlink.com 1.10,2013-07-17 10:38:00,
2013-07-17 06:53:00,69.5,68.0,30.93,East,88,0.0,-999.0,94,-99.99,,,0.00,weatherlink.com 1.10,2013-07-17 10:53:00,
2013-07-17 07:10:00,71.3,70.0,30.93,East,88,0.0,-999.0,94,-99.99,,,0.00,weatherlink.com 1.10,2013-07-17 11:10:00,
2013-07-17 07:23:00,71.9,70.0,30.93,East,88,0.0,-999.0,92,-99.99,,,0.00,weatherlink.com 1.10,2013-07-17 11:23:00,
2013-07-17 07:38:00,73.4,71.0,30.93,East,87,0.0,-999.0,93,-99.99,,,0.00,weatherlink.com 1.10,2013-07-17 11:38:00,
2013-07-17 07:53:00,75.9,73.0,30.93,East,87,0.0,-999.0,89,-99.99,,,0.00,weatherlink.com 1.10,2013-07-17 11:53:00,
2013-07-17 08:10:00,77.0,72.0,30.93,East,88,0.0,-999.0,85,-99.99,,,0.00,weatherlink.com 1.10,2013-07-17 12:10:00,
2013-07-17 08:23:00,79.3,73.0,30.93,East,87,0.0,-999.0,81,-99.99,,,0.00,weatherlink.com 1.10,2013-07-17 12:23:00,
2013-07-17 08:38:00,81.0,73.0,30.93,NNE,18,0.0,-999.0,76,-99.99,,,0.00,weatherlink.com 1.10,2013-07-17 12:38:00,
2013-07-17 08:53:00,81.9,73.0,30.93,NNE,15,0.0,-999.0,74,-99.99,,,0.00,weatherlink.com 1.10,2013-07-17 12:53:00,
2013-07-17 09:10:00,83.3,73.0,30.93,NNE,17,0.0,-999.0,71,-99.99,,,0.00,weatherlink.com 1.10,2013-07-17 13:10:00,
2013-07-17 09:23:00,84.2,72.0,30.93,NNE,13,0.0,-999.0,67,-99.99,,,0.00,weatherlink.com 1.10,2013-07-17 13:23:00,
2013-07-17 09:38:00,85.0,72.0,30.93,NNE,13,0.0,-999.0,65,-99.99,,,0.00,weatherlink.com 1.10,2013-07-17 13:38:00,
2013-07-17 09:53:00,86.4,72.0,30.93,North,11,0.0,-999.0,63,-99.99,,,0.00,weatherlink.com 1.10,2013-07-17 13:53:00,
2013-07-17 10:10:00,86.6,72.0,30.93,North,11,0.0,-999.0,62,-99.99,,,0.00,weatherlink.com 1.10,2013-07-17 14:10:00,
2013-07-17 10:23:00,87.8,73.0,30.93,NNE,12,0.0,-999.0,61,-99.99,,,0.00,weatherlink.com 1.10,2013-07-17 14:23:00,
2013-07-17 10:38:00,87.5,72.0,30.93,WNW,302,0.0,-999.0,61,-99.99,,,0.00,weatherlink.com 1.10,2013-07-17 14:38:00,
2013-07-17 10:53:00,89.0,74.0,30.93,NNE,29,0.0,-999.0,61,-99.99,,,0.00,weatherlink.com 1.10,2013-07-17 14:53:00,
2013-07-17 11:10:00,90.2,73.0,30.93,NNE,28,0.0,-999.0,57,-99.99,,,0.00,weatherlink.com 1.10,2013-07-17 15:10:00,
2013-07-17 11:23:00,90.8,76.0,30.93,NNE,30,0.0,-999.0,62,-99.99,,,0.00,weatherlink.com 1.10,2013-07-17 15:23:00,
2013-07-17 11:38:00,89.9,74.0,30.93,NW,314,0.0,-999.0,59,-99.99,,,0.00,weatherlink.com 1.10,2013-07-17 15:38:00,
2013-07-17 11:53:00,90.6,73.0,30.93,WSW,254,0.0,-999.0,56,-99.99,,,0.00,weatherlink.com 1.10,2013-07-17 15:53:00,
2013-07-17 12:10:00,90.8,72.0,30.93,WNW,291,0.0,-999.0,55,-99.99,,,0.00,weatherlink.com 1.10,2013-07-17 16:10:00,
2013-07-17 12:23:00,91.4,75.0,30.93,WSW,242,0.0,-999.0,59,-99.99,,,0.00,weatherlink.com 1.10,2013-07-17 16:23:00,
2013-07-17 12:38:00,91.8,72.0,30.93,NNW,334,0.0,-999.0,53,-99.99,,,0.00,weatherlink.com 1.10,2013-07-17 16:38:00,
2013-07-17 12:53:00,92.2,73.0,30.93,NW,321,0.0,-999.0,54,-99.99,,,0.00,weatherlink.com 1.10,2013-07-17 16:53:00,